Airfield :







YOU CAN JOIN US ON...

 
LOGIN :

Register | Disclaimer

   EN    FR    IT 

 









Legend :    VFR   Marginal VFR   IFR   Intensive IFR   Very Intensive IFR
Visi :
Ceiling :
>= 8 km
>= 3000ft
5 to 8 km
1000 to 3000 ft
1500m to 5 km
500 to 1000 ft
800 to 1500m
200 to 500 ft
< 800m
< 200 ft
Symbols :   Thunderstorms  Fog  Heavy snow  Heavy precipitations  Wind > 20 kt






- Airport Elevation : 348 ft


KFIT - Fitchburg Municipal

CURRENT METAR :
  • 250852Z AUTO 00000KT 2 1/2SM BR OVC004 09/08 A3027 RMK AO2 SLP253 T00940083 58001

EXPIRED METARs :
  • 250812Z AUTO 36003KT 2 1/2SM BR OVC004 09/08 A3027 RMK AO2 T00940078
  • 250752Z AUTO 00000KT 6SM BR OVC005 10/08 A3028 RMK AO2 SLP254 T01000078
  • 250740Z AUTO 00000KT 7SM OVC005 09/08 A3028 RMK AO2 T00940078
  • 250652Z AUTO 34003KT 8SM OVC006 09/07 A3028 RMK AO2 SLP254 T00940072
  • 250552Z AUTO 03003KT 10SM OVC006 10/07 A3028 RMK AO2 SLP254 T01000072 10122 20094 58009

TAF N/A
KZBW FIR / North America



MET'MAP, your aeronautical weather chart ! - Copyright ORBIFLY December 2007 - Disclaimer

ORBIFLY MET'MAP TEAM :

Programming & Development : Alexandra Zaïnal
Concept & original design : Baudouin d'Aumeries
Assistance for programming : Marc-Olivier Méhu
Technical & hardware support : Manuel Goepfert

Contact : metmap@orbifly.com




SOURCES & CREDITS :

   NOAA